createdAt,value
2023-02-19T00:02:00.604Z,10.60
2023-02-19T00:04:29.043Z,9.40
2023-02-19T00:06:57.932Z,9.70
2023-02-19T00:09:27.513Z,9.80
2023-02-19T00:11:55.418Z,15.10
2023-02-19T00:14:23.528Z,12.20
2023-02-19T00:16:51.554Z,11.60
2023-02-19T00:19:21.072Z,16.00
2023-02-19T00:21:52.954Z,10.40
2023-02-19T00:24:21.578Z,10.00
2023-02-19T00:26:53.532Z,9.70
2023-02-19T00:29:22.191Z,9.80
2023-02-19T00:31:50.756Z,14.30
2023-02-19T00:34:18.996Z,10.20
2023-02-19T00:36:46.881Z,10.50
2023-02-19T00:39:15.995Z,9.80
2023-02-19T00:41:44.708Z,11.10
2023-02-19T00:44:13.785Z,17.20
2023-02-19T00:46:44.206Z,10.50
2023-02-19T00:49:16.593Z,12.30
2023-02-19T00:51:44.771Z,12.90
2023-02-19T00:54:14.364Z,9.50
2023-02-19T00:56:42.724Z,17.40
2023-02-19T00:59:10.578Z,19.80
2023-02-19T01:01:40.043Z,20.20
2023-02-19T01:06:50.355Z,16.10
2023-02-19T01:09:18.568Z,15.90
2023-02-19T01:11:47.001Z,14.00
2023-02-19T01:14:15.288Z,17.80
2023-02-19T01:16:43.431Z,12.50
2023-02-19T01:19:11.869Z,14.90
2023-02-19T01:21:40.816Z,10.20
2023-02-19T01:24:09.929Z,15.90
2023-02-19T01:26:38.050Z,14.60
2023-02-19T01:29:07.915Z,7.50
2023-02-19T01:31:36.793Z,14.60
2023-02-19T01:34:04.734Z,17.50
2023-02-19T01:36:33.491Z,20.00
2023-02-19T01:39:04.129Z,11.40
2023-02-19T01:41:35.520Z,13.20
2023-02-19T01:44:03.872Z,12.00
2023-02-19T01:46:33.536Z,14.90
2023-02-19T01:49:14.246Z,13.30
2023-02-19T01:51:51.118Z,10.60
2023-02-19T01:54:20.630Z,19.80
2023-02-19T01:56:49.075Z,15.30
2023-02-19T01:59:17.382Z,10.90
2023-02-19T02:01:45.725Z,14.60
2023-02-19T02:04:13.976Z,7.10
2023-02-19T02:06:52.371Z,17.40
2023-02-19T02:09:41.351Z,14.00
2023-02-19T02:12:09.543Z,11.80
2023-02-19T02:14:40.535Z,12.90
2023-02-19T02:17:25.986Z,14.00
2023-02-19T02:20:15.434Z,10.60
2023-02-19T02:22:57.701Z,13.60
2023-02-19T02:25:44.481Z,17.00
2023-02-19T02:28:50.816Z,12.60
2023-02-19T02:31:20.612Z,10.40
2023-02-19T02:34:12.060Z,18.10
2023-02-19T02:36:43.661Z,17.80
2023-02-19T02:39:14.517Z,16.20
2023-02-19T02:41:44.077Z,12.10
2023-02-19T02:44:13.044Z,13.20
2023-02-19T02:46:42.129Z,10.80
2023-02-19T02:49:20.535Z,19.10
2023-02-19T02:51:51.159Z,14.30
2023-02-19T02:54:51.606Z,19.10
2023-02-19T02:57:21.946Z,12.60
2023-02-19T02:59:53.319Z,9.80
2023-02-19T03:02:24.936Z,13.60
2023-02-19T03:05:20.520Z,11.70
2023-02-19T03:07:56.738Z,11.70
2023-02-19T03:10:43.237Z,8.10
2023-02-19T03:13:44.313Z,13.20
2023-02-19T03:16:37.057Z,13.00
2023-02-19T03:19:32.066Z,12.90
2023-02-19T03:22:03.230Z,14.20
2023-02-19T03:24:51.101Z,10.60
2023-02-19T03:27:20.199Z,11.80
2023-02-19T03:29:50.351Z,9.30
2023-02-19T03:32:21.461Z,13.60
2023-02-19T03:34:55.420Z,16.60
2023-02-19T03:37:37.235Z,17.10
2023-02-19T03:40:06.072Z,12.20
2023-02-19T03:43:03.026Z,15.80
2023-02-19T03:45:42.552Z,16.10
2023-02-19T03:48:29.184Z,13.40
2023-02-19T03:51:19.216Z,18.30
2023-02-19T03:53:54.077Z,10.90
2023-02-19T03:56:38.391Z,13.80
2023-02-19T03:59:13.036Z,16.80
2023-02-19T04:02:09.346Z,11.20
2023-02-19T04:04:44.857Z,13.60
2023-02-19T04:07:15.004Z,13.20
2023-02-19T04:09:45.109Z,15.30
2023-02-19T04:12:19.405Z,21.60
2023-02-19T04:14:53.212Z,9.70
2023-02-19T04:17:34.497Z,13.10
2023-02-19T04:20:05.703Z,8.90
2023-02-19T04:22:34.898Z,13.60
2023-02-19T04:25:02.842Z,16.90
2023-02-19T04:27:31.350Z,54.50
2023-02-19T04:30:01.158Z,63.60
2023-02-19T04:32:29.815Z,65.00
2023-02-19T04:34:57.732Z,14.80
2023-02-19T04:37:25.882Z,12.50
2023-02-19T04:39:53.800Z,23.50
2023-02-19T04:42:21.865Z,20.50
2023-02-19T04:44:49.960Z,20.40
2023-02-19T04:47:18.004Z,18.50
2023-02-19T04:49:46.238Z,17.80
2023-02-19T04:53:16.931Z,11.20
2023-02-19T04:55:45.234Z,14.20
2023-02-19T04:58:14.697Z,12.70
2023-02-19T05:00:42.587Z,12.50
2023-02-19T05:03:11.087Z,14.90
2023-02-19T05:05:39.523Z,23.30
2023-02-19T05:08:08.093Z,13.70
2023-02-19T05:10:36.780Z,13.10
2023-02-19T05:13:06.157Z,9.60
2023-02-19T05:15:34.240Z,12.20
2023-02-19T05:18:02.298Z,18.50
2023-02-19T05:20:30.256Z,14.70
2023-02-19T05:22:58.282Z,14.70
2023-02-19T05:25:28.050Z,18.10
2023-02-19T05:28:16.759Z,11.80
2023-02-19T05:30:50.640Z,14.50
2023-02-19T05:33:20.772Z,15.60
2023-02-19T05:35:50.703Z,13.40
2023-02-19T05:38:18.940Z,58.30
2023-02-19T05:40:47.591Z,21.90
2023-02-19T05:43:15.938Z,25.50
2023-02-19T05:45:47.512Z,37.60
2023-02-19T05:48:16.256Z,30.70
2023-02-19T05:50:45.577Z,26.00
2023-02-19T05:53:15.444Z,34.50
2023-02-19T05:55:43.421Z,33.80
2023-02-19T05:58:12.250Z,40.60
2023-02-19T06:00:40.263Z,19.90
2023-02-19T06:03:08.204Z,50.60
2023-02-19T06:05:37.482Z,24.90
2023-02-19T06:08:05.680Z,41.60
2023-02-19T06:10:34.165Z,44.40
2023-02-19T06:13:03.984Z,36.40
2023-02-19T06:15:32.722Z,16.10
2023-02-19T06:18:01.106Z,37.10
2023-02-19T06:20:29.899Z,32.90
2023-02-19T06:22:58.718Z,50.00
2023-02-19T06:25:26.775Z,42.70
2023-02-19T06:27:55.235Z,16.20
2023-02-19T06:30:23.503Z,12.50
2023-02-19T06:32:54.033Z,13.10
2023-02-19T06:35:24.472Z,14.40
2023-02-19T06:37:52.656Z,9.30
2023-02-19T06:40:20.829Z,9.30
2023-02-19T06:42:49.167Z,13.10
2023-02-19T06:45:17.347Z,10.90
2023-02-19T06:47:45.425Z,10.10
2023-02-19T06:50:13.396Z,9.70
2023-02-19T06:52:41.388Z,10.60
2023-02-19T06:55:09.705Z,14.40
2023-02-19T06:57:39.522Z,11.60
2023-02-19T07:00:09.418Z,13.10
2023-02-19T07:02:37.457Z,34.90
2023-02-19T07:06:00.994Z,12.40
2023-02-19T07:08:33.348Z,11.00
2023-02-19T07:11:01.593Z,13.30
2023-02-19T07:13:29.660Z,11.90
2023-02-19T07:16:00.423Z,11.90
2023-02-19T07:18:30.223Z,14.30
2023-02-19T07:21:05.881Z,15.70
2023-02-19T07:23:34.566Z,13.00
2023-02-19T07:26:02.756Z,12.80
2023-02-19T07:28:30.738Z,11.70
2023-02-19T07:31:02.613Z,15.50
2023-02-19T07:33:30.821Z,14.60
2023-02-19T07:35:58.944Z,10.10
2023-02-19T07:38:27.228Z,13.00
2023-02-19T07:40:59.402Z,12.60
2023-02-19T07:43:29.635Z,10.70
2023-02-19T07:46:16.217Z,10.40
2023-02-19T07:48:44.800Z,13.00
2023-02-19T07:51:19.033Z,9.00
2023-02-19T07:53:50.412Z,10.40
2023-02-19T07:56:19.362Z,9.80
2023-02-19T07:58:47.837Z,12.70
2023-02-19T08:01:40.033Z,11.00
2023-02-19T08:04:08.702Z,9.50
2023-02-19T08:06:36.946Z,9.80
2023-02-19T08:09:05.698Z,9.40
2023-02-19T08:11:52.564Z,13.60
2023-02-19T08:14:25.188Z,11.70
2023-02-19T08:16:53.441Z,12.50
2023-02-19T08:19:22.538Z,10.00
2023-02-19T08:21:50.993Z,15.70
2023-02-19T08:24:20.588Z,12.90
2023-02-19T08:26:50.232Z,10.90
2023-02-19T08:29:18.298Z,11.40
2023-02-19T08:31:46.436Z,11.40
2023-02-19T08:34:14.537Z,15.30
2023-02-19T08:36:44.203Z,10.10
2023-02-19T08:39:12.250Z,9.30
2023-02-19T08:41:40.241Z,13.90
2023-02-19T08:44:08.953Z,13.80
2023-02-19T08:46:37.877Z,11.90
2023-02-19T08:49:05.812Z,9.00
2023-02-19T08:51:33.796Z,14.30
2023-02-19T08:54:04.036Z,13.30
2023-02-19T08:56:32.168Z,10.50
2023-02-19T08:59:00.145Z,9.20
2023-02-19T09:01:28.338Z,12.40
2023-02-19T09:03:56.583Z,10.80
2023-02-19T09:06:24.648Z,13.00
2023-02-19T09:08:58.319Z,11.70
2023-02-19T09:11:26.721Z,11.20
2023-02-19T09:13:56.060Z,10.20
2023-02-19T09:16:24.313Z,11.30
2023-02-19T09:18:52.268Z,13.60
2023-02-19T09:21:20.419Z,10.90
2023-02-19T09:23:48.516Z,7.70
2023-02-19T09:26:19.341Z,10.60
2023-02-19T09:28:50.100Z,7.90
2023-02-19T09:31:18.241Z,10.70
2023-02-19T09:33:47.147Z,9.50
2023-02-19T09:36:15.978Z,9.30
2023-02-19T09:38:44.534Z,9.70
2023-02-19T09:41:30.190Z,13.20
2023-02-19T09:43:59.110Z,9.90
2023-02-19T09:46:29.141Z,12.70
2023-02-19T09:49:03.461Z,9.10
2023-02-19T09:51:32.852Z,9.00
2023-02-19T09:54:01.930Z,12.00
2023-02-19T09:56:32.532Z,12.50
2023-02-19T09:59:00.569Z,14.70
2023-02-19T10:01:31.024Z,10.10
2023-02-19T10:03:59.158Z,15.40
2023-02-19T10:06:29.980Z,11.40
2023-02-19T10:09:25.964Z,12.00
2023-02-19T10:11:54.918Z,10.30
2023-02-19T10:14:28.932Z,13.70
2023-02-19T10:16:58.132Z,12.10
2023-02-19T10:19:27.580Z,12.50
2023-02-19T10:21:56.883Z,9.60
2023-02-19T10:24:27.451Z,10.80
2023-02-19T10:26:56.142Z,13.00
2023-02-19T10:29:24.996Z,12.90
2023-02-19T10:32:18.336Z,13.90
2023-02-19T10:34:47.555Z,14.00
2023-02-19T10:37:17.456Z,12.90
2023-02-19T10:39:47.817Z,11.70
2023-02-19T10:42:22.944Z,9.20
2023-02-19T10:44:58.646Z,11.00
2023-02-19T10:47:26.882Z,12.70
2023-02-19T10:49:57.011Z,10.10
2023-02-19T10:52:34.302Z,9.80
2023-02-19T10:55:19.030Z,11.30
2023-02-19T10:57:47.344Z,17.60
2023-02-19T11:00:15.262Z,13.80
2023-02-19T11:02:44.289Z,14.00
2023-02-19T11:05:14.598Z,13.90
2023-02-19T11:07:48.707Z,14.30
2023-02-19T11:10:28.716Z,11.40
2023-02-19T11:15:33.063Z,10.90
2023-02-19T11:18:05.123Z,11.00
2023-02-19T11:20:34.116Z,14.60
2023-02-19T11:23:12.448Z,10.60
2023-02-19T11:25:45.794Z,11.80
2023-02-19T11:28:17.896Z,13.30
2023-02-19T11:30:46.752Z,10.40
2023-02-19T11:33:20.028Z,12.90
2023-02-19T11:35:49.154Z,10.90
2023-02-19T11:38:19.375Z,9.20
2023-02-19T11:41:03.087Z,9.00
2023-02-19T11:43:49.899Z,10.10
2023-02-19T11:46:22.958Z,11.00
2023-02-19T11:49:03.259Z,14.60
2023-02-19T11:51:51.465Z,10.00
2023-02-19T11:54:41.828Z,15.40
2023-02-19T11:57:15.032Z,10.20
2023-02-19T11:59:59.327Z,9.80
2023-02-19T12:03:11.754Z,9.00
2023-02-19T12:06:04.753Z,5.30
2023-02-19T12:08:58.479Z,10.40
2023-02-19T12:11:37.238Z,10.00
2023-02-19T12:14:32.961Z,10.20
2023-02-19T12:17:25.077Z,11.10
2023-02-19T12:20:13.325Z,6.30
2023-02-19T12:23:04.102Z,10.10
2023-02-19T12:25:56.968Z,10.00
2023-02-19T12:28:41.241Z,9.90
2023-02-19T12:31:34.832Z,13.90
2023-02-19T12:34:21.902Z,7.80
2023-02-19T12:37:11.139Z,11.50
2023-02-19T12:39:52.274Z,8.10
2023-02-19T12:42:51.517Z,8.00
2023-02-19T12:45:21.624Z,10.80
2023-02-19T12:48:00.531Z,6.50
2023-02-19T12:50:29.355Z,9.50
2023-02-19T12:53:00.728Z,10.60
2023-02-19T12:55:36.271Z,9.70
2023-02-19T12:58:05.783Z,9.10
2023-02-19T13:00:35.822Z,6.90
2023-02-19T13:04:00.248Z,8.70
2023-02-19T13:06:41.911Z,11.70
2023-02-19T13:09:33.296Z,8.60
2023-02-19T13:12:04.587Z,10.10
2023-02-19T13:14:36.825Z,10.50
2023-02-19T13:17:16.735Z,11.30
2023-02-19T13:19:48.652Z,9.80
2023-02-19T13:22:46.634Z,10.60
2023-02-19T13:25:19.831Z,7.70
2023-02-19T13:27:52.238Z,14.80
2023-02-19T13:30:34.138Z,9.00
2023-02-19T13:33:16.190Z,9.10
2023-02-19T13:36:01.476Z,12.00
2023-02-19T13:38:29.640Z,9.70
2023-02-19T13:40:59.164Z,12.00
2023-02-19T13:43:34.884Z,13.70
2023-02-19T13:46:12.443Z,12.50
2023-02-19T13:48:42.141Z,13.20
2023-02-19T13:51:13.300Z,9.70
2023-02-19T13:53:42.853Z,9.80
2023-02-19T13:56:29.805Z,13.70
2023-02-19T13:59:22.225Z,13.50
2023-02-19T14:01:52.693Z,12.30
2023-02-19T14:04:50.415Z,14.00
2023-02-19T14:07:18.851Z,14.40
2023-02-19T14:09:47.694Z,15.60
2023-02-19T14:12:19.445Z,10.80
2023-02-19T14:14:51.558Z,15.00
2023-02-19T14:17:46.085Z,11.50
2023-02-19T14:20:17.151Z,14.20
2023-02-19T14:22:58.376Z,10.80
2023-02-19T14:25:27.149Z,12.00
2023-02-19T14:28:17.097Z,14.70
2023-02-19T14:31:18.016Z,21.30
2023-02-19T14:33:55.046Z,9.00
2023-02-19T14:36:45.130Z,11.80
2023-02-19T14:39:24.752Z,12.70
2023-02-19T14:41:56.715Z,12.70
2023-02-19T14:44:26.494Z,10.20
2023-02-19T14:46:56.763Z,8.90
2023-02-19T14:49:28.420Z,10.10
2023-02-19T14:51:59.572Z,10.10
2023-02-19T14:54:51.101Z,8.50
2023-02-19T14:57:22.438Z,10.50
2023-02-19T14:59:58.880Z,8.50
2023-02-19T15:02:31.292Z,10.90
2023-02-19T15:04:59.245Z,10.90
2023-02-19T15:07:32.468Z,6.90
2023-02-19T15:10:05.556Z,10.90
2023-02-19T15:12:39.137Z,7.70
2023-02-19T15:15:08.473Z,8.20
2023-02-19T15:17:36.618Z,10.10
2023-02-19T15:20:09.502Z,10.20
2023-02-19T15:22:40.010Z,8.80
2023-02-19T15:25:08.757Z,12.20
2023-02-19T15:27:37.529Z,13.90
2023-02-19T15:30:19.410Z,12.50
2023-02-19T15:33:00.653Z,12.30
2023-02-19T15:35:29.319Z,12.50
2023-02-19T15:37:57.352Z,13.70
2023-02-19T15:40:32.554Z,15.20
2023-02-19T15:43:01.106Z,13.40
2023-02-19T15:45:33.198Z,10.20
2023-02-19T15:48:30.814Z,12.80
2023-02-19T15:51:08.215Z,13.40
2023-02-19T15:53:43.439Z,12.70
2023-02-19T15:56:28.413Z,12.30
2023-02-19T15:59:00.621Z,13.90
2023-02-19T16:01:34.584Z,12.60
2023-02-19T16:04:02.584Z,8.70
2023-02-19T16:06:30.783Z,13.10
2023-02-19T16:09:02.168Z,11.50
2023-02-19T16:11:53.171Z,9.30
2023-02-19T16:14:38.704Z,9.10
2023-02-19T16:17:09.672Z,9.10
2023-02-19T16:19:57.903Z,9.00
2023-02-19T16:22:33.720Z,9.40
2023-02-19T16:25:03.860Z,9.10
2023-02-19T16:27:40.061Z,9.90
2023-02-19T16:30:17.477Z,6.90
2023-02-19T16:32:47.297Z,12.80
2023-02-19T16:35:37.495Z,12.10
2023-02-19T16:38:15.156Z,9.60
2023-02-19T16:40:51.047Z,12.30
2023-02-19T16:43:27.671Z,7.40
2023-02-19T16:45:55.782Z,11.20
2023-02-19T16:48:23.847Z,15.00
2023-02-19T16:50:52.835Z,8.60
2023-02-19T16:53:22.562Z,16.40
2023-02-19T16:55:51.012Z,12.40
2023-02-19T16:58:19.673Z,10.20
2023-02-19T17:00:47.708Z,8.30
2023-02-19T17:03:20.254Z,8.00
2023-02-19T17:05:49.591Z,9.70
2023-02-19T17:08:23.782Z,10.40
2023-02-19T17:13:22.375Z,10.40
2023-02-19T17:15:50.557Z,10.50
2023-02-19T17:18:21.122Z,14.30
2023-02-19T17:21:09.530Z,11.60
2023-02-19T17:23:38.014Z,14.60
2023-02-19T17:26:06.322Z,14.30
2023-02-19T17:28:37.019Z,13.20
2023-02-19T17:31:05.440Z,9.20
2023-02-19T17:33:34.271Z,8.80
2023-02-19T17:36:02.279Z,9.40
2023-02-19T17:38:30.720Z,12.40
2023-02-19T17:40:59.113Z,10.90
2023-02-19T17:43:27.573Z,11.60
2023-02-19T17:45:55.902Z,12.40
2023-02-19T17:48:24.573Z,11.20
2023-02-19T17:50:55.586Z,13.60
2023-02-19T17:53:24.089Z,17.30
2023-02-19T17:55:52.536Z,14.10
2023-02-19T17:58:20.864Z,14.60
2023-02-19T18:00:48.875Z,16.70
2023-02-19T18:03:17.137Z,15.50
2023-02-19T18:05:45.565Z,13.50
2023-02-19T18:08:13.776Z,12.30
2023-02-19T18:10:43.865Z,12.10
2023-02-19T18:13:15.911Z,11.80
2023-02-19T18:15:44.223Z,15.40
2023-02-19T18:18:12.438Z,10.10
2023-02-19T18:20:49.304Z,13.60
2023-02-19T18:23:17.935Z,11.30
2023-02-19T18:25:49.836Z,13.30
2023-02-19T18:28:18.466Z,9.70
2023-02-19T18:30:46.764Z,14.50
2023-02-19T18:33:16.581Z,12.90
2023-02-19T18:35:47.455Z,13.00
2023-02-19T18:38:15.611Z,14.30
2023-02-19T18:40:44.377Z,21.00
2023-02-19T18:43:12.814Z,17.70
2023-02-19T18:45:43.485Z,13.70
2023-02-19T18:48:11.702Z,18.30
2023-02-19T18:50:40.215Z,16.30
2023-02-19T18:53:08.269Z,15.00
2023-02-19T18:55:36.659Z,13.50
2023-02-19T18:58:04.721Z,16.80
2023-02-19T19:00:32.794Z,14.90
2023-02-19T19:03:01.087Z,11.10
2023-02-19T19:05:29.634Z,11.80
2023-02-19T19:07:59.511Z,10.20
2023-02-19T19:10:28.048Z,9.70
2023-02-19T19:12:56.135Z,10.80
2023-02-19T19:15:24.303Z,10.20
2023-02-19T19:17:53.896Z,8.60
2023-02-19T19:25:29.791Z,8.70
2023-02-19T19:27:58.950Z,9.00
2023-02-19T19:30:27.112Z,8.60
2023-02-19T19:32:55.824Z,7.60
2023-02-19T19:35:23.829Z,9.60
2023-02-19T19:37:51.731Z,9.60
2023-02-19T19:40:20.002Z,10.10
2023-02-19T19:42:48.226Z,7.20
2023-02-19T19:45:16.448Z,11.90
2023-02-19T19:47:44.467Z,7.70
2023-02-19T19:50:14.676Z,16.00
2023-02-19T19:52:43.429Z,9.20
2023-02-19T19:55:12.601Z,8.60
2023-02-19T19:57:41.775Z,9.50
2023-02-19T20:00:17.875Z,8.60
2023-02-19T20:02:46.563Z,15.40
2023-02-19T20:05:17.733Z,10.40
2023-02-19T20:07:49.835Z,7.70
2023-02-19T20:10:20.011Z,10.10
2023-02-19T20:12:48.493Z,8.40
2023-02-19T20:15:21.310Z,10.90
2023-02-19T20:17:50.042Z,6.50
2023-02-19T20:20:18.741Z,9.80
2023-02-19T20:22:51.809Z,9.00
2023-02-19T20:25:21.739Z,9.20
2023-02-19T20:27:50.626Z,7.50
2023-02-19T20:30:22.416Z,7.10
2023-02-19T20:32:50.450Z,8.70
2023-02-19T20:35:18.721Z,8.70
2023-02-19T20:37:48.111Z,12.20
2023-02-19T20:40:17.325Z,7.70
2023-02-19T20:42:45.292Z,8.00
2023-02-19T20:45:16.721Z,9.00
2023-02-19T20:47:45.953Z,7.60
2023-02-19T20:50:16.260Z,7.10
2023-02-19T20:52:46.186Z,8.80
2023-02-19T20:55:14.071Z,8.30
2023-02-19T20:57:42.658Z,8.10
2023-02-19T21:00:11.365Z,6.90
2023-02-19T21:02:39.297Z,6.00
2023-02-19T21:05:07.268Z,5.30
2023-02-19T21:07:35.648Z,6.60
2023-02-19T21:10:03.890Z,8.30
2023-02-19T21:12:35.106Z,6.70
2023-02-19T21:15:04.798Z,6.80
2023-02-19T21:17:32.977Z,8.10
2023-02-19T21:20:00.906Z,8.70
2023-02-19T21:22:29.225Z,8.40
2023-02-19T21:25:00.991Z,5.90
2023-02-19T21:27:29.981Z,6.20
2023-02-19T21:32:43.286Z,7.50
2023-02-19T21:35:11.719Z,5.50
2023-02-19T21:37:43.128Z,8.50
2023-02-19T21:40:12.200Z,8.60
2023-02-19T21:42:40.418Z,8.10
2023-02-19T21:45:08.848Z,8.10
2023-02-19T21:47:37.602Z,7.90
2023-02-19T21:50:06.646Z,7.10
2023-02-19T21:52:42.392Z,4.40
2023-02-19T21:55:10.488Z,4.50
2023-02-19T21:57:38.471Z,4.60
2023-02-19T22:00:08.521Z,4.60
2023-02-19T22:02:36.466Z,4.90
2023-02-19T22:05:04.636Z,6.50
2023-02-19T22:10:06.450Z,5.90
2023-02-19T22:12:34.495Z,6.00
2023-02-19T22:15:04.016Z,8.00
2023-02-19T22:17:31.943Z,8.40
2023-02-19T22:20:00.329Z,4.40
2023-02-19T22:22:28.212Z,7.40
2023-02-19T22:24:58.221Z,7.40
2023-02-19T22:27:28.599Z,5.90
2023-02-19T22:29:56.451Z,4.00
2023-02-19T22:32:24.759Z,11.20
2023-02-19T22:34:52.959Z,7.50
2023-02-19T22:37:24.788Z,4.60
2023-02-19T22:42:36.249Z,6.60
2023-02-19T22:45:05.688Z,4.70
2023-02-19T22:47:34.033Z,7.50
2023-02-19T22:50:02.112Z,5.50
2023-02-19T22:52:30.118Z,5.60
2023-02-19T22:54:58.156Z,6.20
2023-02-19T22:57:32.355Z,5.10
2023-02-19T23:00:00.846Z,7.70
2023-02-19T23:02:33.444Z,5.40
2023-02-19T23:05:01.820Z,6.10
2023-02-19T23:07:30.249Z,6.10
2023-02-19T23:09:58.215Z,5.70
2023-02-19T23:12:27.383Z,5.10
2023-02-19T23:14:56.750Z,5.80
2023-02-19T23:17:24.692Z,6.90
2023-02-19T23:19:55.093Z,5.10
2023-02-19T23:22:23.337Z,5.60
2023-02-19T23:24:51.308Z,6.40
2023-02-19T23:27:19.820Z,2.50
2023-02-19T23:29:48.148Z,5.70
2023-02-19T23:32:20.879Z,8.30
2023-02-19T23:34:48.848Z,5.70
2023-02-19T23:37:17.516Z,7.60
2023-02-19T23:39:45.490Z,6.60
2023-02-19T23:42:16.195Z,4.60
2023-02-19T23:44:47.135Z,9.60
2023-02-19T23:47:15.286Z,7.60
2023-02-19T23:49:43.249Z,7.10
2023-02-19T23:52:11.432Z,4.90
2023-02-19T23:54:39.564Z,5.00
2023-02-19T23:57:07.682Z,4.90
2023-02-19T23:59:36.659Z,6.50
